createdAt,value
2018-08-19T00:00:42.008Z,0.09
2018-08-19T00:01:42.423Z,0.09
2018-08-19T00:02:42.782Z,0.09
2018-08-19T00:03:43.010Z,0.09
2018-08-19T00:04:43.272Z,0.09
2018-08-19T00:05:44.046Z,0.09
2018-08-19T00:06:44.361Z,0.09
2018-08-19T00:07:44.696Z,0.09
2018-08-19T00:08:45.384Z,0.09
2018-08-19T00:09:45.743Z,0.09
2018-08-19T00:10:46.103Z,0.09
2018-08-19T00:11:46.710Z,0.09
2018-08-19T00:12:47.018Z,0.09
2018-08-19T00:13:47.364Z,0.09
2018-08-19T00:14:47.744Z,0.09
2018-08-19T00:15:48.130Z,0.09
2018-08-19T00:16:48.487Z,0.09
2018-08-19T00:17:48.841Z,0.09
2018-08-19T00:18:49.196Z,0.09
2018-08-19T00:19:49.519Z,0.09
2018-08-19T00:20:49.823Z,0.09
2018-08-19T00:21:50.386Z,0.09
2018-08-19T00:22:49.597Z,0.09
2018-08-19T00:23:51.492Z,0.09
2018-08-19T00:24:51.896Z,0.09
2018-08-19T00:25:52.533Z,0.09
2018-08-19T00:26:52.831Z,0.09
2018-08-19T00:27:53.153Z,0.09
2018-08-19T00:28:53.420Z,0.09
2018-08-19T00:29:53.721Z,0.09
2018-08-19T00:30:54.116Z,0.09
2018-08-19T00:31:54.660Z,0.09
2018-08-19T00:32:55.028Z,0.09
2018-08-19T00:33:55.430Z,0.09
2018-08-19T00:34:55.851Z,0.09
2018-08-19T00:35:56.177Z,0.09
2018-08-19T00:36:56.537Z,0.09
2018-08-19T00:37:56.944Z,0.09
2018-08-19T00:38:05.816Z,0.09
2018-08-19T00:39:06.965Z,0.09
2018-08-19T00:40:07.425Z,0.09
2018-08-19T00:41:08.292Z,0.09
2018-08-19T00:42:08.769Z,0.09
2018-08-19T00:43:09.170Z,0.09
2018-08-19T00:44:09.595Z,0.09
2018-08-19T00:45:08.997Z,0.09
2018-08-19T00:46:10.955Z,0.09
2018-08-19T00:47:11.364Z,0.09
2018-08-19T00:48:11.946Z,0.09
2018-08-19T00:49:12.333Z,0.09
2018-08-19T00:50:14.637Z,0.09
2018-08-19T00:51:13.034Z,0.09
2018-08-19T00:52:13.820Z,0.09
2018-08-19T00:53:14.199Z,0.09
2018-08-19T00:54:14.458Z,0.09
2018-08-19T00:55:14.797Z,0.09
2018-08-19T00:56:15.104Z,0.09
2018-08-19T00:57:15.520Z,0.09
2018-08-19T00:58:16.010Z,0.09
2018-08-19T00:59:16.402Z,0.09
2018-08-19T01:00:16.718Z,0.09
2018-08-19T01:01:17.282Z,0.09
2018-08-19T01:02:17.610Z,0.09
2018-08-19T01:03:17.849Z,0.09
2018-08-19T01:04:18.023Z,0.09
2018-08-19T01:05:18.451Z,0.09
2018-08-19T01:06:18.956Z,0.09
2018-08-19T01:07:19.368Z,0.09
2018-08-19T01:08:20.257Z,0.09
2018-08-19T01:09:20.993Z,0.09
2018-08-19T01:10:21.277Z,0.09
2018-08-19T01:11:21.607Z,0.09
2018-08-19T01:12:21.936Z,0.09
2018-08-19T01:13:22.254Z,0.09
2018-08-19T01:14:22.345Z,0.09
2018-08-19T01:15:22.542Z,0.09
2018-08-19T01:16:23.525Z,0.09
2018-08-19T01:17:23.970Z,0.09
2018-08-19T01:18:24.390Z,0.09
2018-08-19T01:19:24.751Z,0.09
2018-08-19T01:20:25.036Z,0.09
2018-08-19T01:21:25.320Z,0.09
2018-08-19T01:22:25.664Z,0.09
2018-08-19T01:23:26.138Z,0.09
2018-08-19T01:23:34.205Z,0.09
2018-08-19T01:24:35.538Z,0.09
2018-08-19T01:25:35.835Z,0.09
2018-08-19T01:26:35.862Z,0.09
2018-08-19T01:27:36.163Z,0.09
2018-08-19T01:28:36.536Z,0.09
2018-08-19T01:29:36.847Z,0.09
2018-08-19T01:30:37.340Z,0.09
2018-08-19T01:31:37.622Z,0.09
2018-08-19T01:32:37.973Z,0.09
2018-08-19T01:33:38.267Z,0.09
2018-08-19T01:34:38.589Z,0.09
2018-08-19T01:35:38.943Z,0.09
2018-08-19T01:36:39.246Z,0.09
2018-08-19T01:37:39.493Z,0.09
2018-08-19T01:38:38.855Z,0.09
2018-08-19T01:39:40.389Z,0.09
2018-08-19T01:40:41.322Z,0.09
2018-08-19T01:41:40.655Z,0.09
2018-08-19T01:42:42.031Z,0.09
2018-08-19T01:43:42.890Z,0.09
2018-08-19T01:44:43.122Z,0.09
2018-08-19T01:45:43.473Z,0.09
2018-08-19T01:46:44.054Z,0.09
2018-08-19T01:47:44.281Z,0.09
2018-08-19T01:48:44.572Z,0.09
2018-08-19T01:49:44.869Z,0.09
2018-08-19T01:50:45.149Z,0.09
2018-08-19T01:51:45.585Z,0.09
2018-08-19T01:52:45.945Z,0.09
2018-08-19T01:53:46.584Z,0.09
2018-08-19T01:54:46.982Z,0.09
2018-08-19T01:55:47.393Z,0.09
2018-08-19T01:56:48.339Z,0.09
2018-08-19T01:57:48.874Z,0.09
2018-08-19T01:58:49.489Z,0.09
2018-08-19T01:59:50.589Z,0.09
2018-08-19T02:00:50.831Z,0.09
2018-08-19T02:01:51.115Z,0.09
2018-08-19T02:02:51.394Z,0.09
2018-08-19T02:03:51.723Z,0.09
2018-08-19T02:04:52.073Z,0.09
2018-08-19T02:05:52.360Z,0.09
2018-08-19T02:06:52.676Z,0.09
2018-08-19T02:07:52.935Z,0.09
2018-08-19T02:08:53.496Z,0.09
2018-08-19T02:09:02.184Z,0.09
2018-08-19T02:10:02.819Z,0.09
2018-08-19T02:11:03.149Z,0.09
2018-08-19T02:12:03.581Z,0.09
2018-08-19T02:13:04.156Z,0.09
2018-08-19T02:14:04.696Z,0.09
2018-08-19T02:15:05.601Z,0.09
2018-08-19T02:16:06.124Z,0.09
2018-08-19T02:17:06.396Z,0.09
2018-08-19T02:18:06.688Z,0.09
2018-08-19T02:19:07.046Z,0.09
2018-08-19T02:20:07.298Z,0.09
2018-08-19T02:21:08.232Z,0.09
2018-08-19T02:22:08.469Z,0.09
2018-08-19T02:23:08.802Z,0.09
2018-08-19T02:24:09.600Z,0.09
2018-08-19T02:25:10.130Z,0.09
2018-08-19T02:26:10.497Z,0.09
2018-08-19T02:27:10.836Z,0.09
2018-08-19T02:28:11.820Z,0.09
2018-08-19T02:29:12.090Z,0.09
2018-08-19T02:30:12.558Z,0.09
2018-08-19T02:31:12.908Z,0.09
2018-08-19T02:32:13.139Z,0.09
2018-08-19T02:33:13.790Z,0.09
2018-08-19T02:34:14.155Z,0.09
2018-08-19T02:35:14.527Z,0.09
2018-08-19T02:36:14.804Z,0.09
2018-08-19T02:37:15.125Z,0.09
2018-08-19T02:38:15.757Z,0.09
2018-08-19T02:39:16.059Z,0.09
2018-08-19T02:40:16.389Z,0.09
2018-08-19T02:41:16.811Z,0.09
2018-08-19T02:42:17.067Z,0.09
2018-08-19T02:43:17.371Z,0.09
2018-08-19T02:44:17.766Z,0.09
2018-08-19T02:45:18.075Z,0.09
2018-08-19T02:46:18.381Z,0.09
2018-08-19T02:47:19.322Z,0.09
2018-08-19T02:48:20.030Z,0.09
2018-08-19T02:49:20.341Z,0.09
2018-08-19T02:50:20.718Z,0.09
2018-08-19T02:51:20.975Z,0.09
2018-08-19T02:52:21.260Z,0.09
2018-08-19T02:53:21.684Z,0.09
2018-08-19T02:53:31.657Z,0.09
2018-08-19T02:54:31.915Z,0.09
2018-08-19T02:55:33.163Z,0.09
2018-08-19T02:56:33.612Z,0.09
2018-08-19T02:57:33.930Z,0.09
2018-08-19T02:58:34.307Z,0.09
2018-08-19T02:59:34.578Z,0.09
2018-08-19T03:00:34.982Z,0.09
2018-08-19T03:01:35.432Z,0.09
2018-08-19T03:02:35.796Z,0.09
2018-08-19T03:03:36.681Z,0.09
2018-08-19T03:04:37.138Z,0.09
2018-08-19T03:05:37.452Z,0.09
2018-08-19T03:06:37.459Z,0.06
2018-08-19T03:07:39.037Z,0.09
2018-08-19T03:08:38.427Z,0.09
2018-08-19T03:09:38.731Z,0.09
2018-08-19T03:10:38.980Z,0.09
2018-08-19T03:11:39.377Z,0.09
2018-08-19T03:12:39.612Z,0.09
2018-08-19T03:13:39.822Z,0.09
2018-08-19T03:14:40.745Z,0.09
2018-08-19T03:15:40.976Z,0.09
2018-08-19T03:16:41.272Z,0.09
2018-08-19T03:17:41.570Z,0.09
2018-08-19T03:18:42.415Z,0.09
2018-08-19T03:19:42.661Z,0.09
2018-08-19T03:20:43.065Z,0.09
2018-08-19T03:21:43.703Z,0.09
2018-08-19T03:22:44.577Z,0.09
2018-08-19T03:23:44.862Z,0.09
2018-08-19T03:24:45.115Z,0.09
2018-08-19T03:25:45.451Z,0.09
2018-08-19T03:26:45.732Z,0.06
2018-08-19T03:27:45.964Z,0.09
2018-08-19T03:28:46.253Z,0.09
2018-08-19T03:29:46.709Z,0.09
2018-08-19T03:30:46.931Z,0.09
2018-08-19T03:31:46.986Z,0.09
2018-08-19T03:32:47.220Z,0.09
2018-08-19T03:33:47.540Z,0.09
2018-08-19T03:34:48.096Z,0.13
2018-08-19T03:35:48.310Z,0.06
2018-08-19T03:36:02.415Z,0.09
2018-08-19T03:37:03.617Z,0.13
2018-08-19T03:38:03.947Z,0.09
2018-08-19T03:39:03.100Z,0.09
2018-08-19T03:40:04.326Z,0.09
2018-08-19T03:41:04.538Z,0.09
2018-08-19T03:42:04.778Z,0.13
2018-08-19T03:43:05.602Z,0.09
2018-08-19T03:44:05.855Z,0.09
2018-08-19T03:45:06.602Z,0.13
2018-08-19T03:46:06.916Z,0.13
2018-08-19T03:47:07.181Z,0.09
2018-08-19T03:48:07.437Z,0.13
2018-08-19T03:49:07.713Z,0.13
2018-08-19T03:50:07.975Z,0.13
2018-08-19T03:51:08.217Z,0.09
2018-08-19T03:52:08.491Z,0.13
2018-08-19T03:53:08.858Z,0.09
2018-08-19T03:54:09.691Z,0.13
2018-08-19T03:55:10.332Z,0.13
2018-08-19T03:56:10.833Z,0.13
2018-08-19T03:57:11.126Z,0.13
2018-08-19T03:58:11.365Z,0.13
2018-08-19T03:59:11.696Z,0.13
2018-08-19T04:00:12.983Z,0.13
2018-08-19T04:01:12.307Z,0.13
2018-08-19T04:02:12.595Z,0.13
2018-08-19T04:03:13.037Z,0.13
2018-08-19T04:04:13.308Z,0.13
2018-08-19T04:05:13.697Z,0.13
2018-08-19T04:06:14.031Z,0.13
2018-08-19T04:07:14.274Z,0.13
2018-08-19T04:08:14.664Z,0.13
2018-08-19T04:09:13.813Z,0.13
2018-08-19T04:10:15.103Z,0.13
2018-08-19T04:11:15.362Z,0.13
2018-08-19T04:12:16.081Z,0.13
2018-08-19T04:13:16.409Z,0.13
2018-08-19T04:14:16.679Z,0.13
2018-08-19T04:15:16.934Z,0.16
2018-08-19T04:16:17.404Z,0.13
2018-08-19T04:17:17.758Z,0.16
2018-08-19T04:18:18.683Z,0.13
2018-08-19T04:19:18.950Z,0.13
2018-08-19T04:20:19.237Z,0.16
2018-08-19T04:20:27.918Z,0.16
2018-08-19T04:21:28.560Z,0.16
2018-08-19T04:22:29.120Z,0.16
2018-08-19T04:23:29.367Z,0.16
2018-08-19T04:24:29.641Z,0.16
2018-08-19T04:25:29.827Z,0.16
2018-08-19T04:26:30.068Z,0.16
2018-08-19T04:27:30.292Z,0.16
2018-08-19T04:28:30.639Z,0.16
2018-08-19T04:29:30.890Z,0.16
2018-08-19T04:30:31.242Z,0.16
2018-08-19T04:31:30.448Z,0.16
2018-08-19T04:32:31.716Z,0.16
2018-08-19T04:33:32.387Z,0.16
2018-08-19T04:34:32.822Z,0.23
2018-08-19T04:35:33.049Z,0.16
2018-08-19T04:36:33.271Z,0.23
2018-08-19T04:37:33.532Z,0.23
2018-08-19T04:38:34.034Z,0.23
2018-08-19T04:39:34.332Z,0.27
2018-08-19T04:40:34.586Z,0.27
2018-08-19T04:41:34.817Z,0.27
2018-08-19T04:42:35.091Z,0.27
2018-08-19T04:43:35.448Z,0.27
2018-08-19T04:44:36.127Z,0.27
2018-08-19T04:45:37.224Z,0.27
2018-08-19T04:46:36.492Z,0.27
2018-08-19T04:47:36.778Z,0.27
2018-08-19T04:48:37.057Z,0.27
2018-08-19T04:49:37.387Z,0.27
2018-08-19T04:50:37.709Z,0.27
2018-08-19T04:51:38.125Z,0.27
2018-08-19T04:52:38.382Z,0.27
2018-08-19T04:53:38.653Z,0.27
2018-08-19T04:54:38.930Z,0.27
2018-08-19T04:55:39.257Z,0.27
2018-08-19T04:56:39.536Z,0.27
2018-08-19T04:57:39.812Z,0.27
2018-08-19T04:58:40.054Z,0.31
2018-08-19T04:59:40.267Z,0.31
2018-08-19T05:00:40.628Z,0.31
2018-08-19T05:01:40.880Z,0.31
2018-08-19T05:02:41.338Z,0.31
2018-08-19T05:03:41.781Z,0.31
2018-08-19T05:04:41.075Z,0.31
2018-08-19T05:05:42.379Z,0.31
2018-08-19T05:06:42.862Z,0.31
2018-08-19T05:07:42.169Z,0.31
2018-08-19T05:07:50.940Z,0.31
2018-08-19T05:08:51.089Z,0.31
2018-08-19T05:09:52.315Z,0.31
2018-08-19T05:10:52.563Z,0.31
2018-08-19T05:11:52.808Z,0.31
2018-08-19T05:12:53.020Z,0.31
2018-08-19T05:13:53.860Z,0.34
2018-08-19T05:14:53.054Z,0.34
2018-08-19T05:15:53.324Z,0.34
2018-08-19T05:16:55.058Z,0.34
2018-08-19T05:17:55.304Z,0.34
2018-08-19T05:18:55.667Z,0.34
2018-08-19T05:19:55.953Z,0.34
2018-08-19T05:20:56.225Z,0.34
2018-08-19T05:21:56.604Z,0.34
2018-08-19T05:22:56.933Z,0.34
2018-08-19T05:23:57.185Z,0.38
2018-08-19T05:24:57.443Z,0.41
2018-08-19T05:25:58.043Z,0.41
2018-08-19T05:26:58.292Z,0.45
2018-08-19T05:27:58.716Z,0.45
2018-08-19T05:28:58.985Z,0.45
2018-08-19T05:29:59.219Z,0.45
2018-08-19T05:30:58.562Z,0.45
2018-08-19T05:31:59.824Z,0.45
2018-08-19T05:33:00.134Z,0.48
2018-08-19T05:34:00.473Z,0.48
2018-08-19T05:35:00.800Z,0.48
2018-08-19T05:36:01.082Z,0.48
2018-08-19T05:37:01.481Z,0.48
2018-08-19T05:38:01.861Z,0.48
2018-08-19T05:39:01.271Z,0.48
2018-08-19T05:40:02.480Z,0.48
2018-08-19T05:41:02.691Z,0.52
2018-08-19T05:42:02.944Z,0.55
2018-08-19T05:43:03.207Z,0.55
2018-08-19T05:44:03.494Z,0.59
2018-08-19T05:45:04.385Z,0.66
2018-08-19T05:46:04.691Z,0.70
2018-08-19T05:47:05.066Z,0.73
2018-08-19T05:48:04.891Z,0.73
2018-08-19T05:49:06.499Z,0.73
2018-08-19T05:50:07.018Z,0.70
2018-08-19T05:51:07.250Z,0.70
2018-08-19T05:52:07.540Z,0.66
2018-08-19T05:53:07.779Z,0.66
2018-08-19T05:54:08.368Z,0.66
2018-08-19T05:55:07.784Z,0.70
2018-08-19T05:56:09.124Z,0.70
2018-08-19T05:56:17.958Z,0.66
2018-08-19T05:57:19.131Z,0.70
2018-08-19T05:58:19.956Z,0.70
2018-08-19T05:59:20.275Z,0.70
2018-08-19T06:00:20.611Z,0.70
2018-08-19T06:01:20.798Z,0.70
2018-08-19T06:02:21.088Z,0.73
2018-08-19T06:03:21.321Z,0.73
2018-08-19T06:04:21.594Z,0.77
2018-08-19T06:05:20.828Z,0.80
2018-08-19T06:06:22.265Z,0.84
2018-08-19T06:07:22.605Z,0.84
2018-08-19T06:08:23.368Z,0.84
2018-08-19T06:09:23.743Z,0.84
2018-08-19T06:10:24.002Z,0.88
2018-08-19T06:11:24.552Z,0.91
2018-08-19T06:12:25.314Z,0.88
2018-08-19T06:13:25.666Z,0.91
2018-08-19T06:14:25.912Z,0.91
2018-08-19T06:15:26.140Z,0.91
2018-08-19T06:16:26.386Z,0.91
2018-08-19T06:17:26.955Z,0.95
2018-08-19T06:18:27.285Z,0.95
2018-08-19T06:19:27.523Z,0.95
2018-08-19T06:20:27.852Z,0.98
2018-08-19T06:21:28.103Z,0.98
2018-08-19T06:22:28.932Z,0.98
2018-08-19T06:23:29.199Z,0.98
2018-08-19T06:24:29.902Z,0.98
2018-08-19T06:25:30.344Z,0.98
2018-08-19T06:26:30.807Z,1.02
2018-08-19T06:27:30.998Z,1.02
2018-08-19T06:28:31.297Z,1.02
2018-08-19T06:29:31.869Z,1.02
2018-08-19T06:30:32.133Z,1.02
2018-08-19T06:31:32.856Z,1.02
2018-08-19T06:32:33.196Z,0.98
2018-08-19T06:33:33.622Z,0.98
2018-08-19T06:34:34.030Z,0.98
2018-08-19T06:35:33.242Z,0.98
2018-08-19T06:36:34.585Z,1.02
2018-08-19T06:37:33.751Z,1.02
2018-08-19T06:38:35.011Z,1.02
2018-08-19T06:39:35.307Z,1.02
2018-08-19T06:40:35.612Z,1.09
2018-08-19T06:41:35.899Z,1.09
2018-08-19T06:42:36.125Z,1.09
2018-08-19T06:43:36.485Z,1.09
2018-08-19T06:43:45.235Z,1.12
2018-08-19T06:44:46.433Z,1.12
2018-08-19T06:45:46.955Z,1.12
2018-08-19T06:46:47.177Z,1.12
2018-08-19T06:47:46.468Z,1.16
2018-08-19T06:48:47.680Z,1.16
2018-08-19T06:49:47.918Z,1.16
2018-08-19T06:50:48.264Z,1.16
2018-08-19T06:51:48.688Z,1.27
2018-08-19T06:52:49.476Z,1.30
2018-08-19T06:53:49.845Z,1.30
2018-08-19T06:54:50.201Z,1.34
2018-08-19T06:55:50.511Z,1.34
2018-08-19T06:56:50.770Z,1.30
2018-08-19T06:57:51.029Z,1.34
2018-08-19T06:58:51.273Z,1.37
2018-08-19T06:59:51.531Z,1.37
2018-08-19T07:00:51.767Z,1.41
2018-08-19T07:01:52.036Z,1.41
2018-08-19T07:02:52.422Z,1.41
2018-08-19T07:03:52.931Z,1.44
2018-08-19T07:04:52.194Z,1.41
2018-08-19T07:05:53.533Z,1.44
2018-08-19T07:06:53.939Z,1.41
2018-08-19T07:07:54.277Z,1.44
2018-08-19T07:08:54.692Z,1.44
2018-08-19T07:09:55.118Z,1.52
2018-08-19T07:10:55.471Z,1.55
2018-08-19T07:11:55.910Z,1.52
2018-08-19T07:12:55.381Z,1.44
2018-08-19T07:13:56.709Z,1.55
2018-08-19T07:14:55.982Z,1.52
2018-08-19T07:15:57.275Z,1.55
2018-08-19T07:16:57.813Z,1.55
2018-08-19T07:17:58.810Z,1.59
2018-08-19T07:18:59.799Z,1.59
2018-08-19T07:20:00.515Z,1.55
2018-08-19T07:20:59.906Z,1.55
2018-08-19T07:22:01.190Z,1.62
2018-08-19T07:23:01.436Z,1.59
2018-08-19T07:24:01.755Z,1.59
2018-08-19T07:25:02.031Z,1.59
2018-08-19T07:26:02.380Z,1.62
2018-08-19T07:27:02.664Z,1.62
2018-08-19T07:28:02.943Z,1.62
2018-08-19T07:29:03.015Z,1.59
2018-08-19T07:30:03.463Z,1.52
2018-08-19T07:31:02.745Z,1.55
2018-08-19T07:32:03.994Z,1.55
2018-08-19T07:33:04.633Z,1.59
2018-08-19T07:33:13.341Z,1.59
2018-08-19T07:34:13.722Z,1.55
2018-08-19T07:35:13.975Z,1.59
2018-08-19T07:36:14.691Z,1.59
2018-08-19T07:37:15.069Z,1.59
2018-08-19T07:38:14.275Z,1.59
2018-08-19T07:39:15.549Z,1.62
2018-08-19T07:40:15.853Z,1.59
2018-08-19T07:41:16.272Z,1.59
2018-08-19T07:42:16.631Z,1.66
2018-08-19T07:43:15.811Z,1.66
2018-08-19T07:44:17.100Z,1.66
2018-08-19T07:45:17.338Z,1.66
2018-08-19T07:46:17.648Z,1.66
2018-08-19T07:47:18.253Z,1.73
2018-08-19T07:48:18.589Z,1.73
2018-08-19T07:49:18.845Z,1.73
2018-08-19T07:50:19.257Z,1.73
2018-08-19T07:51:19.645Z,1.77
2018-08-19T07:52:18.956Z,1.77
2018-08-19T07:53:20.306Z,1.77
2018-08-19T07:54:20.829Z,1.80
2018-08-19T07:55:20.123Z,1.80
2018-08-19T07:56:21.433Z,1.80
2018-08-19T07:57:22.072Z,1.80
2018-08-19T07:58:22.363Z,1.80
2018-08-19T07:59:22.604Z,1.84
2018-08-19T08:00:22.880Z,1.84
2018-08-19T08:01:22.189Z,1.80
2018-08-19T08:02:24.571Z,1.87
2018-08-19T08:03:22.733Z,1.80
2018-08-19T08:04:24.089Z,1.87
2018-08-19T08:05:24.523Z,1.94
2018-08-19T08:06:24.807Z,1.94
2018-08-19T08:07:25.305Z,1.98
2018-08-19T08:08:25.694Z,1.98
2018-08-19T08:09:26.012Z,1.98
2018-08-19T08:10:26.445Z,2.01
2018-08-19T08:11:27.048Z,2.01
2018-08-19T08:12:28.427Z,2.01
2018-08-19T08:13:27.778Z,2.01
2018-08-19T08:14:28.172Z,2.01
2018-08-19T08:15:28.420Z,2.05
2018-08-19T08:16:28.680Z,2.01
2018-08-19T08:17:28.969Z,2.05
2018-08-19T08:18:29.247Z,2.05
2018-08-19T08:19:29.660Z,2.09
2018-08-19T08:20:29.197Z,2.12
2018-08-19T08:21:30.855Z,2.09
2018-08-19T08:22:30.561Z,2.09
2018-08-19T08:23:31.903Z,2.09
2018-08-19T08:24:32.361Z,2.09
2018-08-19T08:25:53.770Z,2.12
2018-08-19T08:26:54.951Z,2.16
2018-08-19T08:27:55.279Z,2.12
2018-08-19T08:28:55.758Z,2.16
2018-08-19T08:29:56.080Z,2.16
2018-08-19T08:30:56.418Z,2.16
2018-08-19T08:31:56.731Z,2.16
2018-08-19T08:32:57.025Z,2.19
2018-08-19T08:33:57.515Z,2.23
2018-08-19T08:34:56.876Z,2.23
2018-08-19T08:35:58.188Z,2.26
2018-08-19T08:36:58.694Z,2.23
2018-08-19T08:37:59.008Z,2.26
2018-08-19T08:38:58.406Z,2.26
2018-08-19T08:39:59.935Z,2.26
2018-08-19T08:41:00.687Z,2.30
2018-08-19T08:42:01.103Z,2.30
2018-08-19T08:43:01.858Z,2.30
2018-08-19T08:44:02.380Z,2.37
2018-08-19T08:45:02.653Z,2.30
2018-08-19T08:46:02.937Z,2.37
2018-08-19T08:47:03.487Z,2.30
2018-08-19T08:48:03.820Z,2.37
2018-08-19T08:49:03.019Z,2.44
2018-08-19T08:50:04.319Z,2.41
2018-08-19T08:51:04.610Z,2.58
2018-08-19T08:52:04.859Z,2.51
2018-08-19T08:53:05.100Z,2.58
2018-08-19T08:54:05.357Z,2.62
2018-08-19T08:55:05.638Z,2.62
2018-08-19T08:56:06.167Z,2.62
2018-08-19T08:57:06.412Z,2.62
2018-08-19T08:58:06.686Z,2.66
2018-08-19T08:59:07.004Z,2.51
2018-08-19T09:00:07.251Z,2.69
2018-08-19T09:01:07.665Z,2.66
2018-08-19T09:02:07.981Z,2.55
2018-08-19T09:03:08.313Z,2.69
2018-08-19T09:04:07.495Z,2.69
2018-08-19T09:05:08.806Z,2.69
2018-08-19T09:06:09.129Z,2.73
2018-08-19T09:07:09.396Z,2.69
2018-08-19T09:08:09.663Z,2.69
2018-08-19T09:09:09.962Z,2.69
2018-08-19T09:10:10.223Z,2.73
2018-08-19T09:11:10.605Z,2.73
2018-08-19T09:12:11.068Z,2.73
2018-08-19T09:13:11.279Z,2.69
2018-08-19T09:13:20.110Z,2.73
2018-08-19T09:14:20.664Z,2.73
2018-08-19T09:15:20.758Z,2.69
2018-08-19T09:16:21.024Z,2.73
2018-08-19T09:17:21.300Z,2.73
2018-08-19T09:18:21.549Z,2.73
2018-08-19T09:19:22.197Z,2.73
2018-08-19T09:20:21.458Z,2.73
2018-08-19T09:21:21.720Z,2.69
2018-08-19T09:22:23.042Z,2.69
2018-08-19T09:23:23.351Z,2.69
2018-08-19T09:24:22.589Z,2.69
2018-08-19T09:25:24.007Z,2.69
2018-08-19T09:26:24.412Z,2.73
2018-08-19T09:27:24.843Z,2.69
2018-08-19T09:28:26.087Z,2.73
2018-08-19T09:29:25.472Z,2.73
2018-08-19T09:30:25.854Z,2.73
2018-08-19T09:31:26.226Z,2.73
2018-08-19T09:32:26.774Z,2.80
2018-08-19T09:33:27.093Z,2.80
2018-08-19T09:34:27.458Z,2.80
2018-08-19T09:35:27.711Z,2.80
2018-08-19T09:36:27.999Z,2.80
2018-08-19T09:37:28.291Z,2.80
2018-08-19T09:38:28.570Z,2.80
2018-08-19T09:39:28.931Z,2.80
2018-08-19T09:40:29.392Z,2.80
2018-08-19T09:41:29.730Z,2.80
2018-08-19T09:42:30.018Z,2.80
2018-08-19T09:43:30.275Z,2.80
2018-08-19T09:44:31.048Z,2.80
2018-08-19T09:45:31.463Z,2.80
2018-08-19T09:46:31.803Z,2.80
2018-08-19T09:47:32.129Z,2.80
2018-08-19T09:48:31.461Z,2.80
2018-08-19T09:49:32.702Z,2.83
2018-08-19T09:50:33.012Z,2.83
2018-08-19T09:51:33.581Z,2.83
2018-08-19T09:52:33.806Z,2.83
2018-08-19T09:53:34.127Z,2.83
2018-08-19T09:54:34.769Z,2.83
2018-08-19T09:55:35.159Z,2.83
2018-08-19T09:56:35.397Z,2.83
2018-08-19T09:57:35.802Z,2.83
2018-08-19T09:58:35.076Z,2.83
2018-08-19T09:59:36.556Z,2.83
2018-08-19T10:00:36.914Z,2.83
2018-08-19T10:01:37.327Z,2.83
2018-08-19T10:01:45.962Z,2.83
2018-08-19T10:02:47.002Z,2.83
2018-08-19T10:03:47.330Z,2.83
2018-08-19T10:04:48.659Z,2.83
2018-08-19T10:05:47.932Z,2.83
2018-08-19T10:06:48.240Z,2.87
2018-08-19T10:07:48.500Z,2.83
2018-08-19T10:08:47.754Z,2.83
2018-08-19T10:09:49.567Z,2.83
2018-08-19T10:10:49.033Z,2.83
2018-08-19T10:11:50.381Z,2.83
2018-08-19T10:12:50.772Z,2.83
2018-08-19T10:13:50.526Z,2.83
2018-08-19T10:14:52.928Z,2.83
2018-08-19T10:15:52.285Z,2.80
2018-08-19T10:16:52.752Z,2.83
2018-08-19T10:17:53.046Z,2.83
2018-08-19T10:18:53.327Z,2.83
2018-08-19T10:19:53.622Z,2.80
2018-08-19T10:20:53.933Z,2.83
2018-08-19T10:21:54.369Z,2.83
2018-08-19T10:22:54.719Z,2.83
2018-08-19T10:23:54.986Z,2.83
2018-08-19T10:24:55.260Z,2.83
2018-08-19T10:25:55.499Z,2.83
2018-08-19T10:26:55.776Z,2.83
2018-08-19T10:27:56.094Z,2.87
2018-08-19T10:28:56.410Z,2.83
2018-08-19T10:29:56.924Z,2.83
2018-08-19T10:30:57.194Z,2.87
2018-08-19T10:31:57.555Z,2.87
2018-08-19T10:32:57.964Z,2.83
2018-08-19T10:33:58.300Z,2.87
2018-08-19T10:34:58.594Z,2.83
2018-08-19T10:35:58.897Z,2.83
2018-08-19T10:36:59.471Z,2.87
2018-08-19T10:37:59.804Z,2.87
2018-08-19T10:39:00.120Z,2.83
2018-08-19T10:40:00.478Z,2.87
2018-08-19T10:41:00.896Z,2.87
2018-08-19T10:42:01.384Z,2.87
2018-08-19T10:43:01.752Z,2.87
2018-08-19T10:44:02.640Z,2.83
2018-08-19T10:45:02.948Z,2.87
2018-08-19T10:46:03.648Z,2.83
2018-08-19T10:47:02.893Z,2.87
2018-08-19T10:48:04.547Z,2.83
2018-08-19T10:49:04.850Z,2.83
2018-08-19T10:49:13.799Z,2.83
2018-08-19T10:50:14.189Z,2.87
2018-08-19T10:51:15.628Z,2.87
2018-08-19T10:52:15.985Z,2.87
2018-08-19T10:53:16.344Z,2.87
2018-08-19T10:54:15.574Z,2.87
2018-08-19T10:55:16.823Z,2.87
2018-08-19T10:56:17.055Z,2.87
2018-08-19T10:57:17.317Z,2.83
2018-08-19T10:58:17.623Z,2.87
2018-08-19T10:59:17.890Z,2.87
2018-08-19T11:00:18.146Z,2.83
2018-08-19T11:01:18.847Z,2.87
2018-08-19T11:02:19.106Z,2.87
2018-08-19T11:03:19.695Z,2.87
2018-08-19T11:04:20.043Z,2.87
2018-08-19T11:05:20.323Z,2.87
2018-08-19T11:06:20.545Z,2.87
2018-08-19T11:07:20.821Z,2.83
2018-08-19T11:08:21.109Z,2.87
2018-08-19T11:09:21.705Z,2.90
2018-08-19T11:10:22.133Z,2.90
2018-08-19T11:11:22.757Z,2.90
2018-08-19T11:12:23.025Z,2.90
2018-08-19T11:13:23.378Z,2.87
2018-08-19T11:14:22.642Z,2.87
2018-08-19T11:15:23.910Z,2.87
2018-08-19T11:16:24.183Z,2.83
2018-08-19T11:17:24.406Z,2.87
2018-08-19T11:18:24.689Z,2.87
2018-08-19T11:19:25.228Z,2.87
2018-08-19T11:20:25.494Z,2.90
2018-08-19T11:21:25.753Z,2.87
2018-08-19T11:22:26.118Z,2.83
2018-08-19T11:23:25.463Z,2.90
2018-08-19T11:24:28.170Z,2.87
2018-08-19T11:25:27.446Z,2.87
2018-08-19T11:26:27.774Z,2.90
2018-08-19T11:27:28.313Z,2.87
2018-08-19T11:28:27.527Z,2.87
2018-08-19T11:29:28.793Z,2.87
2018-08-19T11:30:29.059Z,2.87
2018-08-19T11:31:29.552Z,2.87
2018-08-19T11:32:29.080Z,2.83
2018-08-19T11:33:30.691Z,2.87
2018-08-19T11:34:30.979Z,2.90
2018-08-19T11:35:31.316Z,2.87
2018-08-19T11:36:31.629Z,2.87
2018-08-19T11:37:31.947Z,2.90
2018-08-19T11:38:32.188Z,2.87
2018-08-19T11:38:46.017Z,2.87
2018-08-19T11:39:43.745Z,2.87
2018-08-19T11:40:44.528Z,2.87
2018-08-19T11:41:45.800Z,2.87
2018-08-19T11:42:46.219Z,2.87
2018-08-19T11:43:46.718Z,2.80
2018-08-19T11:44:47.060Z,2.83
2018-08-19T11:45:47.732Z,2.83
2018-08-19T11:46:47.957Z,2.80
2018-08-19T11:47:49.590Z,2.83
2018-08-19T11:48:48.898Z,2.83
2018-08-19T11:49:48.173Z,2.83
2018-08-19T11:50:49.885Z,2.83
2018-08-19T11:51:50.191Z,2.83
2018-08-19T11:52:50.754Z,2.87
2018-08-19T11:53:50.560Z,2.83
2018-08-19T11:54:51.906Z,2.80
2018-08-19T11:55:52.201Z,2.87
2018-08-19T11:56:52.431Z,2.83
2018-08-19T11:57:52.860Z,2.83
2018-08-19T11:58:53.442Z,2.83
2018-08-19T11:59:53.905Z,2.83
2018-08-19T12:00:54.199Z,2.83
2018-08-19T12:01:54.523Z,2.83
2018-08-19T12:02:53.792Z,2.83
2018-08-19T12:03:55.117Z,2.83
2018-08-19T12:04:55.839Z,2.83
2018-08-19T12:05:56.363Z,2.83
2018-08-19T12:06:56.586Z,2.83
2018-08-19T12:07:56.997Z,2.83
2018-08-19T12:08:57.319Z,2.83
2018-08-19T12:09:57.724Z,2.83
2018-08-19T12:10:57.996Z,2.83
2018-08-19T12:11:58.330Z,2.83
2018-08-19T12:12:58.612Z,2.83
2018-08-19T12:13:58.888Z,2.83
2018-08-19T12:14:59.700Z,2.83
2018-08-19T12:16:00.093Z,2.83
2018-08-19T12:17:00.931Z,2.83
2018-08-19T12:18:00.132Z,2.83
2018-08-19T12:19:01.521Z,2.83
2018-08-19T12:20:01.823Z,2.83
2018-08-19T12:21:02.120Z,2.83
2018-08-19T12:22:03.078Z,2.83
2018-08-19T12:23:03.404Z,2.83
2018-08-19T12:24:03.720Z,2.83
2018-08-19T12:25:03.971Z,2.83
2018-08-19T12:26:04.292Z,2.83
2018-08-19T21:42:57.674Z,0.09
2018-08-19T21:43:58.197Z,0.09
2018-08-19T21:44:58.556Z,0.09
2018-08-19T21:45:58.883Z,0.09
2018-08-19T21:46:59.210Z,0.09
2018-08-19T21:47:59.514Z,0.09
2018-08-19T21:48:59.846Z,0.09
2018-08-19T21:49:59.072Z,0.06
2018-08-19T21:51:00.474Z,0.09
2018-08-19T21:52:00.845Z,0.09
2018-08-19T21:53:01.105Z,0.09
2018-08-19T21:54:01.421Z,0.09
2018-08-19T21:55:01.682Z,0.09
2018-08-19T21:56:01.967Z,0.09
2018-08-19T21:57:02.772Z,0.09
2018-08-19T21:58:02.996Z,0.09
2018-08-19T21:59:03.395Z,0.09
2018-08-19T22:00:03.591Z,0.09
2018-08-19T22:01:03.704Z,0.09
2018-08-19T22:02:04.012Z,0.09
2018-08-19T22:03:04.372Z,0.09
2018-08-19T22:04:05.628Z,0.09
2018-08-19T22:05:04.820Z,0.09
2018-08-19T22:06:05.026Z,0.09
2018-08-19T22:07:06.259Z,0.09
2018-08-19T22:08:05.800Z,0.09
2018-08-19T22:09:06.011Z,0.09
2018-08-19T22:10:06.219Z,0.09
2018-08-19T22:11:06.608Z,0.06
2018-08-19T22:12:06.894Z,0.09
2018-08-19T22:13:07.106Z,0.09
2018-08-19T22:14:07.305Z,0.09
2018-08-19T22:15:07.539Z,0.09
2018-08-19T22:16:07.809Z,0.09
2018-08-19T22:17:08.053Z,0.09
2018-08-19T22:18:08.381Z,0.09
2018-08-19T22:19:08.569Z,0.09
2018-08-19T22:20:09.828Z,0.09
2018-08-19T22:21:08.982Z,0.09
2018-08-19T22:22:09.189Z,0.09
2018-08-19T22:23:09.415Z,0.09
2018-08-19T22:24:09.560Z,0.09
2018-08-19T22:25:10.079Z,0.09
2018-08-19T22:26:10.363Z,0.09
2018-08-19T22:27:10.753Z,0.09
2018-08-19T22:28:10.272Z,0.09